Time;durP1;ratioP1;P1;durP2;ratioP2;P2;SDS_P1;SDS_P2;PMS_P1;PMS_P2;Temp;Humidity;BMP_temperature;BMP_pressure;BME280_temperature;BME280_humidity;BME280_pressure;Samples;Min_cycle;Max_cycle;Signal;HPM_P1;HPM_P2
2021/06/27 00:01:13;;;;;;;;;;;15.60;99.90;;;;;;5077378;28;20273;-71
2021/06/27 00:03:39;;;;;;;;;;;15.60;99.90;;;;;;5075854;28;19916;-71
2021/06/27 00:06:05;;;;;;;;;;;15.60;99.90;;;;;;5075637;28;19932;-71
2021/06/27 00:08:31;;;;;;;;;;;15.60;99.90;;;;;;5076017;28;20253;-72
2021/06/27 00:10:58;;;;;;;;;;;15.60;99.90;;;;;;5075588;28;19911;-72
2021/06/27 00:13:25;;;;;;;;;;;15.60;99.90;;;;;;5076041;28;19916;-72
2021/06/27 00:15:51;;;;;;;;;;;15.60;99.90;;;;;;5075474;28;19908;-72
2021/06/27 00:18:18;;;;;;;;;;;15.60;99.90;;;;;;5075554;28;19916;-72
2021/06/27 00:20:44;;;;;;;;;;;15.60;99.90;;;;;;5075440;28;19905;-71
2021/06/27 00:23:10;;;;;;;;;;;15.60;99.90;;;;;;5075303;28;19912;-71
2021/06/27 00:25:36;;;;;;;;;;;15.60;99.90;;;;;;5075520;28;19915;-71
2021/06/27 00:28:02;;;;;;;;;;;15.60;99.90;;;;;;5075424;28;19908;-71
2021/06/27 00:30:28;;;;;;;;;;;15.60;99.90;;;;;;5075472;28;19909;-71
2021/06/27 00:32:54;;;;;;;;;;;15.60;99.90;;;;;;5075146;28;19931;-71
2021/06/27 00:35:20;;;;;;;;;;;15.60;99.90;;;;;;5074144;28;19916;-71
2021/06/27 00:37:46;;;;;;;;;;;15.60;99.90;;;;;;5073670;28;20377;-71
2021/06/27 00:40:13;;;;;;;;;;;15.60;99.90;;;;;;5074951;28;20265;-70
2021/06/27 00:42:39;;;;;;;;;;;15.60;99.90;;;;;;5075362;28;19911;-72
2021/06/27 00:45:06;;;;;;;;;;;15.60;99.90;;;;;;5074958;28;19919;-71
2021/06/27 00:47:33;;;;;;;;;;;15.60;99.90;;;;;;5075310;28;19904;-71
2021/06/27 00:49:59;;;;;;;;;;;15.60;99.90;;;;;;5074914;28;19909;-71
2021/06/27 00:52:25;;;;;;;;;;;15.60;99.90;;;;;;5074943;28;19928;-72
2021/06/27 00:54:51;;;;;;;;;;;15.60;99.90;;;;;;5056717;28;19927;-70
2021/06/27 00:57:17;;;;;;;;;;;15.60;99.90;;;;;;5040359;28;19983;-71
2021/06/27 00:59:43;;;;;;;;;;;15.50;99.90;;;;;;5074731;28;19912;-71
2021/06/27 01:02:09;;;;;;;;;;;15.50;99.90;;;;;;5074654;28;19908;-71
2021/06/27 01:04:36;;;;;;;;;;;15.50;99.90;;;;;;5075171;28;19916;-71
2021/06/27 01:07:02;;;;;;;;;;;15.50;99.90;;;;;;5074478;28;19934;-72
2021/06/27 01:09:27;;;;;;;;;;;15.50;99.90;;;;;;5074797;28;19961;-71
2021/06/27 01:11:53;;;;;;;;;;;15.50;99.90;;;;;;5074219;28;19916;-72
2021/06/27 01:14:19;;;;;;;;;;;15.50;99.90;;;;;;5074759;28;19915;-72
2021/06/27 01:16:45;;;;;;;;;;;15.50;99.90;;;;;;5056637;28;20277;-73
2021/06/27 01:19:11;;;;;;;;;;;15.50;99.90;;;;;;5074236;28;19934;-71
2021/06/27 01:21:37;;;;;;;;;;;15.50;99.90;;;;;;5074645;28;19908;-72
2021/06/27 01:24:03;;;;;;;;;;;15.50;99.90;;;;;;5074131;28;19909;-72
2021/06/27 01:26:29;;;;;;;;;;;15.40;99.90;;;;;;5074191;28;20289;-71
2021/06/27 01:28:57;;;;;;;;;;;15.40;99.90;;;;;;5074049;28;19905;-72
2021/06/27 01:31:23;;;;;;;;;;;15.40;99.90;;;;;;5074256;28;19904;-72
2021/06/27 01:33:49;;;;;;;;;;;15.40;99.90;;;;;;5074207;28;20357;-72
2021/06/27 01:36:15;;;;;;;;;;;15.40;99.90;;;;;;5056102;28;19912;-72
2021/06/27 01:38:41;;;;;;;;;;;15.40;99.90;;;;;;5073994;28;19924;-72
2021/06/27 01:41:07;;;;;;;;;;;15.40;99.90;;;;;;5073834;28;19908;-72
2021/06/27 01:43:33;;;;;;;;;;;15.40;99.90;;;;;;5074092;28;20424;-71
2021/06/27 01:45:59;;;;;;;;;;;15.40;99.90;;;;;;5073822;28;19909;-72
2021/06/27 01:48:25;;;;;;;;;;;15.30;99.90;;;;;;5073896;28;19919;-72
2021/06/27 01:50:52;;;;;;;;;;;15.30;99.90;;;;;;5073636;28;19904;-72
2021/06/27 01:53:19;;;;;;;;;;;15.20;99.90;;;;;;5073999;28;20385;-72
2021/06/27 01:55:45;;;;;;;;;;;15.20;99.90;;;;;;5073809;28;19916;-72
2021/06/27 01:58:11;;;;;;;;;;;15.20;99.90;;;;;;5073652;28;19916;-72
2021/06/27 02:00:37;;;;;;;;;;;15.20;99.90;;;;;;5073677;28;19904;-72
2021/06/27 02:03:03;;;;;;;;;;;15.10;99.90;;;;;;5055781;28;19904;-73
2021/06/27 02:05:29;;;;;;;;;;;15.10;99.90;;;;;;5055925;28;19913;-71
2021/06/27 02:07:57;;;;;;;;;;;15.10;99.90;;;;;;5055671;28;19970;-72
2021/06/27 02:10:24;;;;;;;;;;;15.10;99.90;;;;;;5073719;28;19921;-72
2021/06/27 02:12:50;;;;;;;;;;;15.00;99.90;;;;;;5055050;28;19912;-71
2021/06/27 02:15:16;;;;;;;;;;;15.00;99.90;;;;;;5055607;28;19926;-72
2021/06/27 02:18:08;;;;;;;;;;;15.00;99.90;;;;;;5073543;28;20373;-73
2021/06/27 02:20:34;;;;;;;;;;;15.00;99.90;;;;;;5069614;28;19904;-71
2021/06/27 02:23:00;;;;;;;;;;;14.90;99.90;;;;;;5073250;28;20266;-71
2021/06/27 02:25:26;;;;;;;;;;;15.00;99.90;;;;;;5071560;28;19913;-71
2021/06/27 02:27:52;;;;;;;;;;;15.00;99.90;;;;;;5073508;28;19911;-71
2021/06/27 02:30:19;;;;;;;;;;;15.10;99.90;;;;;;5072969;28;19904;-70
2021/06/27 02:32:44;;;;;;;;;;;15.00;99.90;;;;;;5073110;28;19915;-70
2021/06/27 02:35:11;;;;;;;;;;;15.10;99.90;;;;;;5072940;28;19916;-71
2021/06/27 02:37:37;;;;;;;;;;;15.10;99.90;;;;;;5054982;28;19916;-72
2021/06/27 02:40:03;;;;;;;;;;;15.10;99.90;;;;;;5073070;28;19964;-73
2021/06/27 02:42:29;;;;;;;;;;;15.10;99.90;;;;;;5054974;28;19908;-70
2021/06/27 02:44:55;;;;;;;;;;;15.00;99.90;;;;;;5072919;28;20326;-72
2021/06/27 02:47:21;;;;;;;;;;;15.00;99.90;;;;;;5073122;28;19920;-74
2021/06/27 02:49:47;;;;;;;;;;;15.00;99.90;;;;;;5073423;28;19916;-72
2021/06/27 02:52:12;;;;;;;;;;;15.00;99.90;;;;;;5072912;28;19915;-72
2021/06/27 02:54:38;;;;;;;;;;;15.00;99.90;;;;;;5073316;28;20353;-68
2021/06/27 02:57:04;;;;;;;;;;;15.00;99.90;;;;;;5072767;28;19917;-72
2021/06/27 02:59:30;;;;;;;;;;;15.00;99.90;;;;;;5073003;28;19951;-72
2021/06/27 03:01:56;;;;;;;;;;;14.90;99.90;;;;;;5072811;28;19954;-73
2021/06/27 03:04:22;;;;;;;;;;;14.90;99.90;;;;;;5071614;28;19912;-71
2021/06/27 03:06:48;;;;;;;;;;;14.90;99.90;;;;;;5073009;28;19909;-71
2021/06/27 03:09:14;;;;;;;;;;;15.00;99.90;;;;;;5072700;28;19908;-71
2021/06/27 03:11:40;;;;;;;;;;;14.90;99.90;;;;;;5072996;28;20262;-73
2021/06/27 03:14:06;;;;;;;;;;;14.90;99.90;;;;;;5072611;28;19909;-72
2021/06/27 03:16:31;;;;;;;;;;;14.90;99.90;;;;;;5072844;28;19913;-73
2021/06/27 03:18:57;;;;;;;;;;;14.90;99.90;;;;;;5072727;28;19909;-72
2021/06/27 03:21:23;;;;;;;;;;;14.70;99.90;;;;;;5073056;28;20377;-71
2021/06/27 03:23:49;;;;;;;;;;;14.70;99.90;;;;;;5072747;28;19915;-72
2021/06/27 03:26:15;;;;;;;;;;;14.70;99.90;;;;;;5072544;28;19915;-72
2021/06/27 03:28:44;;;;;;;;;;;14.60;99.90;;;;;;5072651;28;20040;-71
2021/06/27 03:31:10;;;;;;;;;;;14.70;99.90;;;;;;5072563;28;19915;-72
2021/06/27 03:33:35;;;;;;;;;;;14.70;99.90;;;;;;5072802;28;20353;-72
2021/06/27 03:36:02;;;;;;;;;;;14.70;99.90;;;;;;5072485;28;19912;-73
2021/06/27 03:41:03;;;;;;;;;;;14.60;99.90;;;;;;5082937;28;19908;-72
2021/06/27 03:43:29;;;;;;;;;;;14.60;99.90;;;;;;5076289;28;20353;-71
2021/06/27 03:45:54;;;;;;;;;;;14.60;99.90;;;;;;5076218;28;20265;-71
2021/06/27 03:48:20;;;;;;;;;;;14.50;99.90;;;;;;5075998;28;19909;-71
2021/06/27 03:50:46;;;;;;;;;;;14.60;99.90;;;;;;5076256;28;19908;-71
2021/06/27 03:53:12;;;;;;;;;;;14.60;99.90;;;;;;5076041;28;19909;-72
2021/06/27 03:55:38;;;;;;;;;;;14.60;99.90;;;;;;5074926;28;19908;-71
2021/06/27 03:58:04;;;;;;;;;;;14.60;99.90;;;;;;5075807;28;19939;-72
2021/06/27 04:00:30;;;;;;;;;;;14.60;99.90;;;;;;5076283;28;19915;-71
2021/06/27 04:02:56;;;;;;;;;;;14.60;99.90;;;;;;5075969;28;19916;-72
2021/06/27 04:05:22;;;;;;;;;;;14.60;99.90;;;;;;5076063;28;19919;-72
2021/06/27 04:07:48;;;;;;;;;;;14.70;99.90;;;;;;5076016;28;19904;-72
2021/06/27 04:10:14;;;;;;;;;;;14.70;99.90;;;;;;5075533;28;19905;-72
2021/06/27 04:12:40;;;;;;;;;;;14.70;99.90;;;;;;5076005;28;19904;-72
2021/06/27 04:15:06;;;;;;;;;;;14.70;99.90;;;;;;5075611;28;19908;-71
2021/06/27 04:17:32;;;;;;;;;;;14.60;99.90;;;;;;5075456;28;19935;-70
2021/06/27 04:19:58;;;;;;;;;;;14.70;99.90;;;;;;5057981;28;19909;-71
2021/06/27 04:22:24;;;;;;;;;;;14.70;99.90;;;;;;5075454;28;19912;-72
2021/06/27 04:24:50;;;;;;;;;;;14.70;99.90;;;;;;5075738;28;19911;-71
2021/06/27 04:27:16;;;;;;;;;;;14.70;99.90;;;;;;5075273;28;19916;-70
2021/06/27 04:29:41;;;;;;;;;;;14.70;99.90;;;;;;5075454;28;20375;-71
2021/06/27 04:32:07;;;;;;;;;;;14.70;99.90;;;;;;5073983;28;19916;-72
2021/06/27 04:34:33;;;;;;;;;;;14.70;99.90;;;;;;5075920;28;20371;-72
2021/06/27 04:36:59;;;;;;;;;;;14.70;99.90;;;;;;5075294;28;19942;-71
2021/06/27 04:39:25;;;;;;;;;;;14.70;99.90;;;;;;5074977;28;19968;-72
2021/06/27 04:41:52;;;;;;;;;;;14.70;99.90;;;;;;5075506;28;20355;-71
2021/06/27 04:44:18;;;;;;;;;;;14.70;99.90;;;;;;5075063;28;19905;-73
2021/06/27 04:46:44;;;;;;;;;;;14.70;99.90;;;;;;5075162;28;20396;-71
2021/06/27 04:49:10;;;;;;;;;;;14.70;99.90;;;;;;5074517;28;19911;-72
2021/06/27 04:51:36;;;;;;;;;;;14.70;99.90;;;;;;5057554;28;19912;-72
2021/06/27 04:54:02;;;;;;;;;;;14.70;99.90;;;;;;5075108;28;19912;-72
2021/06/27 04:56:28;;;;;;;;;;;14.80;99.90;;;;;;5075076;28;19908;-72
2021/06/27 04:58:54;;;;;;;;;;;14.80;99.90;;;;;;5075034;28;19913;-72
2021/06/27 05:01:20;;;;;;;;;;;14.80;99.90;;;;;;5074764;28;19908;-74
2021/06/27 05:03:46;;;;;;;;;;;14.80;99.90;;;;;;5074975;28;19927;-71
2021/06/27 05:06:12;;;;;;;;;;;14.80;99.90;;;;;;5074742;28;19919;-71
2021/06/27 05:08:38;;;;;;;;;;;14.80;99.90;;;;;;5074841;28;20357;-73
2021/06/27 05:11:04;;;;;;;;;;;14.90;99.90;;;;;;5074468;28;19904;-73
2021/06/27 05:13:29;;;;;;;;;;;14.80;99.90;;;;;;5074724;28;19931;-71
2021/06/27 05:15:55;;;;;;;;;;;14.80;99.90;;;;;;5074510;28;19916;-72
2021/06/27 05:18:23;;;;;;;;;;;14.80;99.90;;;;;;5074340;28;19927;-72
2021/06/27 05:20:49;;;;;;;;;;;14.80;99.90;;;;;;5074628;28;19916;-72
2021/06/27 05:23:15;;;;;;;;;;;14.80;99.90;;;;;;5074206;28;19912;-72
2021/06/27 05:25:41;;;;;;;;;;;14.90;99.90;;;;;;5074638;28;19904;-73
2021/06/27 05:28:07;;;;;;;;;;;14.90;99.90;;;;;;5074325;28;19909;-72
2021/06/27 05:30:33;;;;;;;;;;;14.90;99.90;;;;;;5074169;28;19908;-73
2021/06/27 05:33:00;;;;;;;;;;;14.90;99.90;;;;;;5074211;28;19967;-73
2021/06/27 05:35:26;;;;;;;;;;;14.90;99.90;;;;;;5074449;28;19920;-71
2021/06/27 05:37:52;;;;;;;;;;;14.90;99.90;;;;;;5074051;28;19932;-72
2021/06/27 05:40:18;;;;;;;;;;;14.80;99.90;;;;;;5073999;28;19912;-73
2021/06/27 05:42:44;;;;;;;;;;;14.80;99.90;;;;;;5074226;28;20272;-72
2021/06/27 05:45:10;;;;;;;;;;;14.80;99.90;;;;;;5073904;28;19915;-72
2021/06/27 05:47:36;;;;;;;;;;;14.80;99.90;;;;;;5073842;28;19909;-72
2021/06/27 05:50:02;;;;;;;;;;;14.80;99.90;;;;;;5073998;28;20364;-71
2021/06/27 05:52:28;;;;;;;;;;;14.80;99.90;;;;;;5073765;28;19915;-72
2021/06/27 05:54:54;;;;;;;;;;;14.90;99.90;;;;;;5073907;28;19908;-71
2021/06/27 05:57:22;;;;;;;;;;;14.90;99.90;;;;;;5055792;28;19912;-71
2021/06/27 05:59:48;;;;;;;;;;;15.00;99.90;;;;;;5072988;28;19909;-71
2021/06/27 06:02:14;;;;;;;;;;;15.00;99.90;;;;;;5073507;28;20253;-69
2021/06/27 06:04:40;;;;;;;;;;;15.10;99.90;;;;;;5074042;28;19916;-70
2021/06/27 06:07:06;;;;;;;;;;;15.10;99.90;;;;;;5074137;28;19912;-70
2021/06/27 06:09:32;;;;;;;;;;;15.10;99.90;;;;;;5073469;28;19912;-72
2021/06/27 06:11:58;;;;;;;;;;;15.10;99.90;;;;;;5073717;28;19932;-72
2021/06/27 06:14:23;;;;;;;;;;;15.10;99.90;;;;;;5073275;28;19915;-71
2021/06/27 06:16:49;;;;;;;;;;;15.10;99.90;;;;;;5073405;28;19908;-72
2021/06/27 06:19:18;;;;;;;;;;;15.10;99.90;;;;;;5073251;28;19905;-73
2021/06/27 06:21:45;;;;;;;;;;;15.20;99.90;;;;;;5073651;28;19905;-70
2021/06/27 06:24:10;;;;;;;;;;;15.20;99.90;;;;;;5055465;28;19911;-69
2021/06/27 06:26:36;;;;;;;;;;;15.10;99.90;;;;;;5073256;28;20372;-71
2021/06/27 06:29:04;;;;;;;;;;;15.10;99.90;;;;;;5073421;28;19915;-71
2021/06/27 06:31:30;;;;;;;;;;;15.10;99.90;;;;;;5073443;28;19916;-70
2021/06/27 06:33:56;;;;;;;;;;;15.10;99.90;;;;;;5073318;28;19924;-69
2021/06/27 06:36:22;;;;;;;;;;;15.20;99.90;;;;;;5072542;28;20277;-71
2021/06/27 06:38:48;;;;;;;;;;;15.10;99.90;;;;;;5073092;28;19939;-71
2021/06/27 06:41:15;;;;;;;;;;;15.10;99.90;;;;;;5072985;28;19908;-71
2021/06/27 06:43:41;;;;;;;;;;;15.10;99.90;;;;;;5055796;28;19912;-70
2021/06/27 06:46:07;;;;;;;;;;;15.00;99.90;;;;;;5073170;28;19908;-72
2021/06/27 06:48:33;;;;;;;;;;;15.00;99.90;;;;;;5072901;28;20272;-72
2021/06/27 06:50:59;;;;;;;;;;;15.00;99.90;;;;;;5073275;28;19908;-70
2021/06/27 06:53:25;;;;;;;;;;;15.00;99.90;;;;;;5072877;28;19909;-69
2021/06/27 06:55:51;;;;;;;;;;;15.00;99.90;;;;;;5055270;28;20285;-70
2021/06/27 06:58:17;;;;;;;;;;;15.00;99.90;;;;;;5072740;28;19924;-70
2021/06/27 07:00:43;;;;;;;;;;;15.10;99.90;;;;;;5073161;28;20364;-72
2021/06/27 07:03:09;;;;;;;;;;;15.00;99.90;;;;;;5073081;28;19919;-69
2021/06/27 07:05:35;;;;;;;;;;;15.00;99.90;;;;;;5072870;28;19909;-70
2021/06/27 07:08:01;;;;;;;;;;;15.00;99.90;;;;;;5073093;28;19912;-71
2021/06/27 07:10:27;;;;;;;;;;;14.90;99.90;;;;;;5072963;28;19915;-71
2021/06/27 07:12:53;;;;;;;;;;;14.90;99.90;;;;;;5077159;28;19908;-73
2021/06/27 07:15:19;;;;;;;;;;;15.00;99.90;;;;;;5076640;28;20354;-73
2021/06/27 07:17:45;;;;;;;;;;;14.90;99.90;;;;;;5076914;28;19916;-72
2021/06/27 07:20:11;;;;;;;;;;;15.00;99.90;;;;;;5076703;28;19958;-71
2021/06/27 07:22:37;;;;;;;;;;;15.00;99.90;;;;;;5059441;28;20304;-70
2021/06/27 07:25:04;;;;;;;;;;;15.10;99.90;;;;;;5076682;28;19909;-73
2021/06/27 07:27:30;;;;;;;;;;;15.10;99.90;;;;;;5058506;28;19904;-74
2021/06/27 07:29:56;;;;;;;;;;;15.00;99.90;;;;;;5076780;28;20376;-71
2021/06/27 07:32:22;;;;;;;;;;;15.10;99.90;;;;;;5076275;28;19919;-71
2021/06/27 07:34:48;;;;;;;;;;;15.10;99.90;;;;;;5076763;28;19916;-73
2021/06/27 07:37:13;;;;;;;;;;;15.10;99.90;;;;;;5076094;28;20352;-73
2021/06/27 07:39:39;;;;;;;;;;;15.00;99.90;;;;;;5059014;28;19904;-71
2021/06/27 07:42:05;;;;;;;;;;;15.00;99.90;;;;;;5076358;28;19915;-72
2021/06/27 07:44:31;;;;;;;;;;;15.10;99.90;;;;;;5076263;28;20407;-72
2021/06/27 07:46:57;;;;;;;;;;;15.00;99.90;;;;;;5076515;28;19909;-72
2021/06/27 07:49:23;;;;;;;;;;;15.00;99.90;;;;;;5076174;28;19904;-72
2021/06/27 07:51:49;;;;;;;;;;;15.00;99.90;;;;;;5076133;28;19916;-72
2021/06/27 07:54:15;;;;;;;;;;;15.10;99.90;;;;;;5076222;28;20384;-73
2021/06/27 07:56:41;;;;;;;;;;;15.00;99.90;;;;;;5076332;28;19915;-72
2021/06/27 07:59:09;;;;;;;;;;;15.00;99.90;;;;;;5076147;28;19923;-72
2021/06/27 08:01:34;;;;;;;;;;;15.00;99.90;;;;;;5075885;28;19909;-70
2021/06/27 08:04:01;;;;;;;;;;;15.00;99.90;;;;;;5076189;28;20367;-73
2021/06/27 08:06:26;;;;;;;;;;;15.00;99.90;;;;;;5058211;28;19908;-72
2021/06/27 08:08:52;;;;;;;;;;;15.00;99.90;;;;;;5076118;28;19919;-72
2021/06/27 08:11:18;;;;;;;;;;;15.10;99.90;;;;;;5075744;28;20296;-72
2021/06/27 08:13:44;;;;;;;;;;;15.10;99.90;;;;;;5075929;28;19912;-72
2021/06/27 08:16:10;;;;;;;;;;;15.10;99.90;;;;;;5075728;28;19928;-72
2021/06/27 08:18:36;;;;;;;;;;;15.10;99.90;;;;;;5075456;28;20365;-71
2021/06/27 08:21:02;;;;;;;;;;;15.20;99.90;;;;;;5075796;28;19912;-71
2021/06/27 08:23:28;;;;;;;;;;;15.20;99.90;;;;;;5074522;28;19908;-73
2021/06/27 08:25:54;;;;;;;;;;;15.20;99.90;;;;;;5075838;28;19912;-71
2021/06/27 08:28:20;;;;;;;;;;;15.20;99.90;;;;;;5073870;28;20395;-71
2021/06/27 08:30:46;;;;;;;;;;;15.10;99.90;;;;;;5075344;28;19915;-71
2021/06/27 08:33:12;;;;;;;;;;;15.20;99.90;;;;;;5075575;28;19912;-72
2021/06/27 08:35:38;;;;;;;;;;;15.20;99.90;;;;;;5075545;28;19974;-70
2021/06/27 08:38:04;;;;;;;;;;;15.10;99.90;;;;;;5075119;28;20011;-72
2021/06/27 08:40:29;;;;;;;;;;;15.30;99.90;;;;;;5057009;28;19911;-72
2021/06/27 08:42:56;;;;;;;;;;;15.30;99.90;;;;;;5075199;28;19908;-73
2021/06/27 08:45:23;;;;;;;;;;;15.40;99.90;;;;;;5074920;28;19958;-72
2021/06/27 08:47:52;;;;;;;;;;;15.40;99.90;;;;;;5074992;28;19908;-69
2021/06/27 08:50:19;;;;;;;;;;;15.30;99.90;;;;;;5057080;28;20361;-70
2021/06/27 08:52:45;;;;;;;;;;;15.30;99.90;;;;;;5056890;28;19911;-73
2021/06/27 08:55:11;;;;;;;;;;;15.30;99.90;;;;;;5075046;28;19905;-71
2021/06/27 08:57:37;;;;;;;;;;;15.30;99.90;;;;;;5074559;28;20396;-72
2021/06/27 09:00:04;;;;;;;;;;;15.40;99.90;;;;;;5074895;28;19912;-70
2021/06/27 09:02:30;;;;;;;;;;;15.40;99.90;;;;;;5074531;28;19904;-70
2021/06/27 09:04:56;;;;;;;;;;;15.50;99.90;;;;;;5074955;28;20337;-71
2021/06/27 09:07:26;;;;;;;;;;;15.50;99.90;;;;;;5056834;28;20024;-70
2021/06/27 09:09:52;;;;;;;;;;;15.50;99.90;;;;;;5074543;28;19909;-72
2021/06/27 09:12:18;;;;;;;;;;;15.50;99.90;;;;;;5074403;28;19908;-71
2021/06/27 09:14:44;;;;;;;;;;;15.60;99.90;;;;;;5074583;28;19915;-71
2021/06/27 09:17:17;;;;;;;;;;;15.70;99.90;;;;;;5074560;28;19909;-71
2021/06/27 09:19:52;;;;;;;;;;;15.80;99.90;;;;;;5056456;28;20258;-72
2021/06/27 09:22:18;;;;;;;;;;;15.90;99.90;;;;;;5074230;28;19919;-72
2021/06/27 09:24:46;;;;;;;;;;;16.00;99.90;;;;;;5073960;28;19905;-72
2021/06/27 09:27:18;;;;;;;;;;;16.00;99.90;;;;;;5074379;28;19931;-71
2021/06/27 09:29:44;;;;;;;;;;;16.00;99.90;;;;;;5074538;28;19916;-72
2021/06/27 09:32:14;;;;;;;;;;;16.00;99.90;;;;;;5074297;28;19904;-72
2021/06/27 09:34:43;;;;;;;;;;;16.10;99.90;;;;;;5074061;28;19923;-71
2021/06/27 09:37:09;;;;;;;;;;;16.00;99.90;;;;;;5074129;28;19909;-70
2021/06/27 09:39:35;;;;;;;;;;;16.00;99.90;;;;;;5052570;28;20000;-70
2021/06/27 09:42:04;;;;;;;;;;;16.00;99.90;;;;;;5036085;28;19904;-72
2021/06/27 09:44:30;;;;;;;;;;;15.90;99.90;;;;;;5053961;28;19905;-71
2021/06/27 09:46:56;;;;;;;;;;;16.00;99.90;;;;;;5054150;28;20281;-73
2021/06/27 09:49:24;;;;;;;;;;;16.10;99.90;;;;;;5053733;28;19916;-73
2021/06/27 09:51:55;;;;;;;;;;;16.10;99.90;;;;;;5052834;28;19912;-72
2021/06/27 09:54:22;;;;;;;;;;;16.20;99.90;;;;;;5053880;28;19920;-73
2021/06/27 09:56:48;;;;;;;;;;;16.30;99.90;;;;;;5052847;28;19911;-71
2021/06/27 09:59:16;;;;;;;;;;;16.30;99.90;;;;;;5053708;28;19917;-71
2021/06/27 10:01:42;;;;;;;;;;;16.40;99.90;;;;;;5053442;28;19915;-72
2021/06/27 10:04:12;;;;;;;;;;;16.30;99.90;;;;;;5052928;28;19920;-70
2021/06/27 10:06:48;;;;;;;;;;;16.40;99.90;;;;;;5052235;28;19916;-71
2021/06/27 10:09:16;;;;;;;;;;;16.50;99.90;;;;;;5053546;28;19904;-72
2021/06/27 10:12:01;;;;;;;;;;;16.60;99.90;;;;;;5053379;28;19916;-72
2021/06/27 10:14:30;;;;;;;;;;;16.70;99.90;;;;;;5053319;28;19909;-71
2021/06/27 10:16:57;;;;;;;;;;;16.70;99.90;;;;;;5053638;28;20290;-72
2021/06/27 10:19:23;;;;;;;;;;;16.60;99.90;;;;;;5053191;28;19916;-72
2021/06/27 10:21:49;;;;;;;;;;;16.70;99.90;;;;;;5053478;28;19909;-72
2021/06/27 10:24:15;;;;;;;;;;;16.60;99.90;;;;;;5053836;28;19904;-73
2021/06/27 10:26:41;;;;;;;;;;;16.70;99.90;;;;;;5051723;28;20372;-72
2021/06/27 10:29:07;;;;;;;;;;;16.80;99.90;;;;;;5051978;28;19912;-72
2021/06/27 10:31:33;;;;;;;;;;;16.90;99.90;;;;;;5053051;28;19909;-72
2021/06/27 10:33:59;;;;;;;;;;;16.90;99.90;;;;;;5052085;28;20247;-72
2021/06/27 10:36:29;;;;;;;;;;;16.80;99.90;;;;;;5052927;28;19908;-71
2021/06/27 10:38:55;;;;;;;;;;;16.90;99.90;;;;;;5048419;28;19924;-72
2021/06/27 10:41:28;;;;;;;;;;;16.90;99.90;;;;;;5015497;28;19905;-73
2021/06/27 10:43:58;;;;;;;;;;;17.00;99.90;;;;;;5032091;28;19905;-70
2021/06/27 10:46:43;;;;;;;;;;;17.10;99.90;;;;;;5032557;28;19905;-72
2021/06/27 10:49:27;;;;;;;;;;;17.00;99.90;;;;;;5033132;28;19909;-71
2021/06/27 10:52:00;;;;;;;;;;;17.00;99.90;;;;;;5031898;28;19931;-70
2021/06/27 10:54:29;;;;;;;;;;;16.90;99.90;;;;;;5033061;28;19905;-72
2021/06/27 10:56:58;;;;;;;;;;;16.90;99.90;;;;;;5033322;28;19912;-72
2021/06/27 10:59:39;;;;;;;;;;;17.00;99.90;;;;;;5032931;28;19937;-72
2021/06/27 11:02:20;;;;;;;;;;;17.10;99.90;;;;;;5033088;28;20270;-72
2021/06/27 11:04:46;;;;;;;;;;;17.00;99.90;;;;;;5032719;28;20290;-72
2021/06/27 11:07:31;;;;;;;;;;;17.10;99.90;;;;;;5033039;28;19913;-70
2021/06/27 11:10:15;;;;;;;;;;;17.00;99.90;;;;;;5032937;28;19912;-71
2021/06/27 11:15:29;;;;;;;;;;;17.00;99.90;;;;;;5032990;28;19905;-72
2021/06/27 11:17:59;;;;;;;;;;;17.10;99.90;;;;;;5032804;28;20366;-71
2021/06/27 11:20:25;;;;;;;;;;;17.10;99.90;;;;;;5031280;28;19932;-71
2021/06/27 11:22:52;;;;;;;;;;;17.10;99.90;;;;;;5031382;28;19931;-71
2021/06/27 11:25:37;;;;;;;;;;;17.20;99.90;;;;;;5031661;28;19913;-70
2021/06/27 11:28:18;;;;;;;;;;;17.30;99.90;;;;;;5031894;28;19913;-72
2021/06/27 11:30:47;;;;;;;;;;;17.20;99.90;;;;;;5032111;28;19920;-71
2021/06/27 11:33:22;;;;;;;;;;;17.30;99.90;;;;;;5032487;28;19909;-73
2021/06/27 11:35:51;;;;;;;;;;;17.10;99.90;;;;;;5030725;28;19920;-67
2021/06/27 11:38:35;;;;;;;;;;;17.00;99.90;;;;;;5050228;28;19928;-69
2021/06/27 11:41:03;;;;;;;;;;;16.90;99.90;;;;;;5072648;28;19904;-72
2021/06/27 11:43:47;;;;;;;;;;;16.90;99.90;;;;;;5054442;28;19909;-61
2021/06/27 11:46:26;;;;;;;;;;;17.10;99.90;;;;;;5052252;28;19912;-65
2021/06/27 11:48:51;;;;;;;;;;;17.30;99.90;;;;;;5070589;28;19909;-71
2021/06/27 11:51:17;;;;;;;;;;;17.30;99.90;;;;;;5072028;28;19913;-71
2021/06/27 11:53:43;;;;;;;;;;;17.40;99.90;;;;;;5069971;28;19930;-71
2021/06/27 11:56:12;;;;;;;;;;;17.60;99.90;;;;;;5069931;28;19919;-69
2021/06/27 11:58:37;;;;;;;;;;;17.80;99.90;;;;;;5053360;28;19920;-69
2021/06/27 12:01:04;;;;;;;;;;;17.90;99.90;;;;;;5073479;28;19931;-68
2021/06/27 12:03:30;;;;;;;;;;;17.60;99.90;;;;;;5073344;28;19912;-70
2021/06/27 12:05:57;;;;;;;;;;;17.70;99.90;;;;;;5055549;28;19912;-71
2021/06/27 12:08:23;;;;;;;;;;;17.80;99.90;;;;;;5056613;28;20292;-70
2021/06/27 12:10:51;;;;;;;;;;;17.90;99.90;;;;;;5075006;28;19916;-72
2021/06/27 12:13:17;;;;;;;12.65;4.65;;;17.90;99.90;;;;;;5074684;28;20186;-70
2021/06/27 12:15:46;;;;;;;8.05;4.07;;;18.00;99.90;;;;;;5074479;28;20665;-71
2021/06/27 12:18:23;;;;;;;9.77;3.90;;;18.00;99.90;;;;;;5073473;28;20217;-72
2021/06/27 12:20:56;;;;;;;11.13;4.30;;;17.90;99.90;;;;;;5074339;28;20536;-72
2021/06/27 12:23:33;;;;;;;15.38;4.50;;;17.80;99.90;;;;;;5073286;28;20174;-71
2021/06/27 12:26:04;;;;;;;8.82;4.13;;;17.60;99.90;;;;;;5074665;28;20166;-72
2021/06/27 12:28:34;;;;;;;11.20;3.88;;;17.60;99.90;;;;;;5073437;28;20162;-73
2021/06/27 12:31:24;;;;;;;8.18;4.20;;;17.50;99.90;;;;;;5067374;28;20177;-72
2021/06/27 12:33:55;;;;;;;7.20;3.35;;;17.60;99.90;;;;;;5062082;28;20196;-72
2021/06/27 12:36:49;;;;;;;10.15;3.53;;;17.80;99.90;;;;;;5074404;28;20177;-72
2021/06/27 12:39:17;;;;;;;7.20;3.40;;;17.90;99.90;;;;;;5072661;28;20214;-70
2021/06/27 12:41:44;;;;;;;11.70;3.70;;;17.70;99.90;;;;;;5056309;28;20181;-72
2021/06/27 12:44:11;;;;;;;9.10;3.40;;;17.80;99.90;;;;;;5073406;28;20661;-71
2021/06/27 12:46:46;;;;;;;7.90;3.47;;;17.90;99.90;;;;;;5072829;28;20174;-72
2021/06/27 12:49:22;;;;;;;8.00;3.45;;;18.10;99.90;;;;;;5074469;28;20626;-72
2021/06/27 12:51:52;;;;;;;8.52;3.33;;;18.10;99.90;;;;;;5055696;28;20264;-70
2021/06/27 12:54:20;;;;;;;10.85;3.50;;;18.20;99.90;;;;;;5056651;28;20634;-71
2021/06/27 12:57:04;;;;;;;8.85;4.45;;;18.50;99.90;;;;;;5072829;28;20633;-71
2021/06/27 12:59:36;;;;;;;10.40;4.85;;;18.50;99.90;;;;;;5073611;28;20209;-69
2021/06/27 13:02:11;;;;;;;13.35;5.55;;;18.40;99.90;;;;;;5055454;28;20642;-73
2021/06/27 13:04:59;;;;;;;9.40;4.97;;;18.60;99.90;;;;;;5073663;28;20177;-71
2021/06/27 13:07:34;;;;;;;10.65;5.07;;;18.50;99.90;;;;;;5073606;28;20543;-73
2021/06/27 13:10:19;;;;;;;10.77;4.60;;;18.30;99.90;;;;;;5073690;28;20157;-72
2021/06/27 13:13:03;;;;;;;11.00;5.10;;;18.30;99.90;;;;;;5073805;28;20173;-71
2021/06/27 13:15:34;;;;;;;9.48;4.80;;;18.30;99.90;;;;;;5065134;28;20166;-73
2021/06/27 13:18:11;;;;;;;12.05;5.07;;;18.20;99.90;;;;;;5073725;28;20194;-71
2021/06/27 13:20:40;;;;;;;13.45;4.80;;;18.10;99.90;;;;;;5073480;28;20173;-72
2021/06/27 13:23:10;;;;;;;14.77;5.22;;;17.90;99.90;;;;;;5073884;28;20170;-69
2021/06/27 13:25:36;;;;;;;13.35;5.45;;;18.10;99.90;;;;;;5073107;28;20193;-72
2021/06/27 13:28:03;;;;;;;10.85;5.13;;;18.10;99.90;;;;;;5073481;28;20166;-70
2021/06/27 13:30:30;;;;;;;11.55;4.70;;;18.10;99.90;;;;;;5071959;28;20182;-72
2021/06/27 13:33:06;;;;;;;8.57;5.07;;;18.30;99.90;;;;;;5073272;28;20649;-72
2021/06/27 13:35:34;;;;;;;9.88;4.55;;;18.50;99.90;;;;;;5073508;28;20174;-72
2021/06/27 13:38:02;;;;;;;10.02;4.13;;;18.80;99.90;;;;;;5055501;28;20209;-71
2021/06/27 13:40:29;;;;;;;14.20;4.65;;;18.80;99.90;;;;;;5072709;28;20650;-72
2021/06/27 13:42:55;;;;;;;8.30;4.10;;;18.90;99.90;;;;;;5055198;28;20964;-70
2021/06/27 13:45:22;;;;;;;12.68;4.18;;;19.10;99.90;;;;;;5073675;28;20518;-71
2021/06/27 13:47:50;;;;;;;11.38;4.75;;;19.30;99.90;;;;;;5072874;28;20173;-69
2021/06/27 13:50:16;;;;;;;13.07;4.50;;;19.40;99.90;;;;;;5073117;28;20177;-71
2021/06/27 13:52:42;;;;;;;9.65;3.70;;;19.60;99.90;;;;;;5072905;28;20189;-69
2021/06/27 13:55:09;;;;;;;11.60;3.40;;;19.10;99.90;;;;;;5072941;28;20191;-69
2021/06/27 13:57:35;;;;;;;7.07;3.17;;;19.00;99.90;;;;;;5072409;28;20186;-72
2021/06/27 14:00:03;;;;;;;11.52;3.65;;;18.80;99.90;;;;;;5073068;28;20202;-72
2021/06/27 14:02:29;;;;;;;10.23;3.75;;;18.90;99.90;;;;;;5073087;28;20181;-68
2021/06/27 14:04:56;;;;;;;13.98;4.40;;;19.00;99.90;;;;;;5071599;28;20200;-72
2021/06/27 14:07:22;;;;;;;9.77;3.92;;;19.00;99.90;;;;;;5072662;28;20659;-71
2021/06/27 14:09:48;;;;;;;9.65;4.20;;;19.00;99.90;;;;;;5072546;28;20189;-71